sensor_id;sensor_type;location;lat;lon;timestamp;temperature;humidity
19359;DHT22;9815;52.334;20.890;2022-11-03T00:01:33;8.40;99.90
19359;DHT22;9815;52.334;20.890;2022-11-03T00:04:03;8.40;99.90
19359;DHT22;9815;52.334;20.890;2022-11-03T00:06:31;8.40;99.90
19359;DHT22;9815;52.334;20.890;2022-11-03T00:09:03;8.40;99.90
19359;DHT22;9815;52.334;20.890;2022-11-03T00:11:32;8.30;99.90
19359;DHT22;9815;52.334;20.890;2022-11-03T00:14:01;8.30;99.90
19359;DHT22;9815;52.334;20.890;2022-11-03T00:16:29;8.20;99.90
19359;DHT22;9815;52.334;20.890;2022-11-03T00:18:57;8.20;99.90
19359;DHT22;9815;52.334;20.890;2022-11-03T00:21:25;8.10;99.90
19359;DHT22;9815;52.334;20.890;2022-11-03T00:23:53;8.10;99.90
19359;DHT22;9815;52.334;20.890;2022-11-03T00:26:24;8.10;99.90
19359;DHT22;9815;52.334;20.890;2022-11-03T00:28:53;8.10;99.90
19359;DHT22;9815;52.334;20.890;2022-11-03T00:31:23;8.00;99.90
19359;DHT22;9815;52.334;20.890;2022-11-03T00:33:52;8.00;99.90
19359;DHT22;9815;52.334;20.890;2022-11-03T00:36:21;8.00;99.90
19359;DHT22;9815;52.334;20.890;2022-11-03T00:38:50;8.00;99.90
19359;DHT22;9815;52.334;20.890;2022-11-03T00:41:19;7.90;99.90
19359;DHT22;9815;52.334;20.890;2022-11-03T00:43:49;7.90;99.90
19359;DHT22;9815;52.334;20.890;2022-11-03T00:46:18;7.80;99.90
19359;DHT22;9815;52.334;20.890;2022-11-03T00:48:47;7.80;99.90
19359;DHT22;9815;52.334;20.890;2022-11-03T00:51:17;7.80;99.90
19359;DHT22;9815;52.334;20.890;2022-11-03T00:53:47;7.80;99.90
19359;DHT22;9815;52.334;20.890;2022-11-03T00:56:17;7.80;99.90
19359;DHT22;9815;52.334;20.890;2022-11-03T00:58:45;7.80;99.90
19359;DHT22;9815;52.334;20.890;2022-11-03T01:01:16;7.70;99.90
19359;DHT22;9815;52.334;20.890;2022-11-03T01:03:47;7.70;99.90
19359;DHT22;9815;52.334;20.890;2022-11-03T01:06:30;7.70;99.90
19359;DHT22;9815;52.334;20.890;2022-11-03T01:09:12;7.70;99.90
19359;DHT22;9815;52.334;20.890;2022-11-03T01:11:41;7.60;99.90
19359;DHT22;9815;52.334;20.890;2022-11-03T01:14:13;7.60;99.90
19359;DHT22;9815;52.334;20.890;2022-11-03T01:16:43;7.60;99.90
19359;DHT22;9815;52.334;20.890;2022-11-03T01:19:11;7.50;99.90
19359;DHT22;9815;52.334;20.890;2022-11-03T01:21:39;7.50;99.90
19359;DHT22;9815;52.334;20.890;2022-11-03T01:24:07;7.50;99.90
19359;DHT22;9815;52.334;20.890;2022-11-03T01:26:35;7.50;99.90
19359;DHT22;9815;52.334;20.890;2022-11-03T01:29:03;7.40;99.90
19359;DHT22;9815;52.334;20.890;2022-11-03T01:31:31;7.40;99.90
19359;DHT22;9815;52.334;20.890;2022-11-03T01:34:01;7.40;99.90
19359;DHT22;9815;52.334;20.890;2022-11-03T01:36:29;7.30;99.90
19359;DHT22;9815;52.334;20.890;2022-11-03T01:38:57;7.30;99.90
19359;DHT22;9815;52.334;20.890;2022-11-03T01:41:26;7.30;99.90
19359;DHT22;9815;52.334;20.890;2022-11-03T01:44:29;7.30;99.90
19359;DHT22;9815;52.334;20.890;2022-11-03T01:47:11;7.20;99.90
19359;DHT22;9815;52.334;20.890;2022-11-03T01:49:45;7.20;99.90
19359;DHT22;9815;52.334;20.890;2022-11-03T01:52:16;7.10;99.90
19359;DHT22;9815;52.334;20.890;2022-11-03T01:54:49;7.10;99.90
19359;DHT22;9815;52.334;20.890;2022-11-03T01:57:21;7.10;99.90
19359;DHT22;9815;52.334;20.890;2022-11-03T01:59:52;7.00;99.90
19359;DHT22;9815;52.334;20.890;2022-11-03T02:02:25;7.00;99.90
19359;DHT22;9815;52.334;20.890;2022-11-03T02:04:57;7.00;99.90
19359;DHT22;9815;52.334;20.890;2022-11-03T02:07:31;7.00;99.90
19359;DHT22;9815;52.334;20.890;2022-11-03T02:10:04;6.90;99.90
19359;DHT22;9815;52.334;20.890;2022-11-03T02:12:33;6.90;99.90
19359;DHT22;9815;52.334;20.890;2022-11-03T02:15:05;6.90;99.90
19359;DHT22;9815;52.334;20.890;2022-11-03T02:17:35;6.90;99.90
19359;DHT22;9815;52.334;20.890;2022-11-03T02:20:07;6.80;99.90
19359;DHT22;9815;52.334;20.890;2022-11-03T02:25:43;6.80;99.90
19359;DHT22;9815;52.334;20.890;2022-11-03T02:28:13;6.80;99.90
19359;DHT22;9815;52.334;20.890;2022-11-03T02:30:45;6.70;99.90
19359;DHT22;9815;52.334;20.890;2022-11-03T02:33:30;6.70;99.90
19359;DHT22;9815;52.334;20.890;2022-11-03T02:36:05;6.70;99.90
19359;DHT22;9815;52.334;20.890;2022-11-03T02:38:36;6.60;99.90
19359;DHT22;9815;52.334;20.890;2022-11-03T02:41:08;6.60;99.90
19359;DHT22;9815;52.334;20.890;2022-11-03T02:43:37;6.60;99.90
19359;DHT22;9815;52.334;20.890;2022-11-03T02:46:06;6.50;99.90
19359;DHT22;9815;52.334;20.890;2022-11-03T02:48:34;6.50;99.90
19359;DHT22;9815;52.334;20.890;2022-11-03T02:51:03;6.50;99.90
19359;DHT22;9815;52.334;20.890;2022-11-03T02:53:34;6.50;99.90
19359;DHT22;9815;52.334;20.890;2022-11-03T02:56:06;6.50;99.90
19359;DHT22;9815;52.334;20.890;2022-11-03T02:58:41;6.50;99.90
19359;DHT22;9815;52.334;20.890;2022-11-03T03:01:12;6.40;99.90
19359;DHT22;9815;52.334;20.890;2022-11-03T03:03:47;6.40;99.90
19359;DHT22;9815;52.334;20.890;2022-11-03T03:06:21;6.40;99.90
19359;DHT22;9815;52.334;20.890;2022-11-03T03:08:53;6.40;99.90
19359;DHT22;9815;52.334;20.890;2022-11-03T03:11:23;6.30;99.90
19359;DHT22;9815;52.334;20.890;2022-11-03T03:14:08;6.30;99.90
19359;DHT22;9815;52.334;20.890;2022-11-03T03:16:42;6.30;99.90
19359;DHT22;9815;52.334;20.890;2022-11-03T03:19:19;6.30;99.90
19359;DHT22;9815;52.334;20.890;2022-11-03T03:21:51;6.20;99.90
19359;DHT22;9815;52.334;20.890;2022-11-03T03:24:28;6.20;99.90
19359;DHT22;9815;52.334;20.890;2022-11-03T03:27:00;6.20;99.90
19359;DHT22;9815;52.334;20.890;2022-11-03T03:29:34;6.20;99.90
19359;DHT22;9815;52.334;20.890;2022-11-03T03:32:07;6.10;99.90
19359;DHT22;9815;52.334;20.890;2022-11-03T03:34:38;6.10;99.90
19359;DHT22;9815;52.334;20.890;2022-11-03T03:37:08;6.10;99.90
19359;DHT22;9815;52.334;20.890;2022-11-03T03:39:38;6.00;99.90
19359;DHT22;9815;52.334;20.890;2022-11-03T03:42:09;6.00;99.90
19359;DHT22;9815;52.334;20.890;2022-11-03T03:44:40;6.00;99.90
19359;DHT22;9815;52.334;20.890;2022-11-03T03:47:12;6.00;99.90
19359;DHT22;9815;52.334;20.890;2022-11-03T03:49:41;6.00;99.90
19359;DHT22;9815;52.334;20.890;2022-11-03T03:52:10;6.00;99.90
19359;DHT22;9815;52.334;20.890;2022-11-03T03:54:38;6.00;99.90
19359;DHT22;9815;52.334;20.890;2022-11-03T03:57:11;5.90;99.90
19359;DHT22;9815;52.334;20.890;2022-11-03T03:59:41;5.80;99.90
19359;DHT22;9815;52.334;20.890;2022-11-03T04:02:09;5.80;99.90
19359;DHT22;9815;52.334;20.890;2022-11-03T04:04:38;5.80;99.90
19359;DHT22;9815;52.334;20.890;2022-11-03T04:07:07;5.80;99.90
19359;DHT22;9815;52.334;20.890;2022-11-03T04:09:52;5.70;99.90
19359;DHT22;9815;52.334;20.890;2022-11-03T04:12:22;5.70;99.90
19359;DHT22;9815;52.334;20.890;2022-11-03T04:15:11;5.70;99.90
19359;DHT22;9815;52.334;20.890;2022-11-03T04:17:57;5.70;99.90
19359;DHT22;9815;52.334;20.890;2022-11-03T04:20:42;5.70;99.90
19359;DHT22;9815;52.334;20.890;2022-11-03T04:23:28;5.70;99.90
19359;DHT22;9815;52.334;20.890;2022-11-03T04:25:56;5.60;99.90
19359;DHT22;9815;52.334;20.890;2022-11-03T04:28:27;5.60;99.90
19359;DHT22;9815;52.334;20.890;2022-11-03T04:30:56;5.60;99.90
19359;DHT22;9815;52.334;20.890;2022-11-03T04:33:25;5.60;99.90
19359;DHT22;9815;52.334;20.890;2022-11-03T04:35:54;5.50;99.90
19359;DHT22;9815;52.334;20.890;2022-11-03T04:38:25;5.50;99.90
19359;DHT22;9815;52.334;20.890;2022-11-03T04:40:56;5.50;99.90
19359;DHT22;9815;52.334;20.890;2022-11-03T04:43:32;5.40;99.90
19359;DHT22;9815;52.334;20.890;2022-11-03T04:46:02;5.40;99.90
19359;DHT22;9815;52.334;20.890;2022-11-03T04:48:30;5.40;99.90
19359;DHT22;9815;52.334;20.890;2022-11-03T04:51:01;5.40;99.90
19359;DHT22;9815;52.334;20.890;2022-11-03T04:53:36;5.40;99.90
19359;DHT22;9815;52.334;20.890;2022-11-03T04:56:13;5.40;99.90
19359;DHT22;9815;52.334;20.890;2022-11-03T04:58:43;5.30;99.90
19359;DHT22;9815;52.334;20.890;2022-11-03T05:01:14;5.30;99.90
19359;DHT22;9815;52.334;20.890;2022-11-03T05:03:51;5.30;99.90
19359;DHT22;9815;52.334;20.890;2022-11-03T05:06:21;5.30;99.90
19359;DHT22;9815;52.334;20.890;2022-11-03T05:08:52;5.20;99.90
19359;DHT22;9815;52.334;20.890;2022-11-03T05:11:27;5.20;99.90
19359;DHT22;9815;52.334;20.890;2022-11-03T05:13:59;5.20;99.90
19359;DHT22;9815;52.334;20.890;2022-11-03T05:16:28;5.20;99.90
19359;DHT22;9815;52.334;20.890;2022-11-03T05:18:57;5.20;99.90
19359;DHT22;9815;52.334;20.890;2022-11-03T05:21:26;5.20;99.90
19359;DHT22;9815;52.334;20.890;2022-11-03T05:23:57;5.20;99.90
19359;DHT22;9815;52.334;20.890;2022-11-03T05:26:31;5.20;99.90
19359;DHT22;9815;52.334;20.890;2022-11-03T05:29:02;5.10;99.90
19359;DHT22;9815;52.334;20.890;2022-11-03T05:31:33;5.10;99.90
19359;DHT22;9815;52.334;20.890;2022-11-03T05:34:30;5.20;99.90
19359;DHT22;9815;52.334;20.890;2022-11-03T05:36:52;5.20;99.90
19359;DHT22;9815;52.334;20.890;2022-11-03T05:39:29;5.20;99.90
19359;DHT22;9815;52.334;20.890;2022-11-03T05:41:58;5.20;99.90
19359;DHT22;9815;52.334;20.890;2022-11-03T05:44:33;5.20;99.90
19359;DHT22;9815;52.334;20.890;2022-11-03T05:47:04;5.20;99.90
19359;DHT22;9815;52.334;20.890;2022-11-03T05:49:35;5.20;99.90
19359;DHT22;9815;52.334;20.890;2022-11-03T05:52:04;5.20;99.90
19359;DHT22;9815;52.334;20.890;2022-11-03T05:54:33;5.20;99.90
19359;DHT22;9815;52.334;20.890;2022-11-03T05:57:06;5.20;99.90
19359;DHT22;9815;52.334;20.890;2022-11-03T05:59:36;5.20;99.90
19359;DHT22;9815;52.334;20.890;2022-11-03T06:02:12;5.30;99.90
19359;DHT22;9815;52.334;20.890;2022-11-03T06:04:48;5.30;99.90
19359;DHT22;9815;52.334;20.890;2022-11-03T06:07:22;5.30;99.90
19359;DHT22;9815;52.334;20.890;2022-11-03T06:09:51;5.30;99.90
19359;DHT22;9815;52.334;20.890;2022-11-03T06:12:21;5.30;99.90
19359;DHT22;9815;52.334;20.890;2022-11-03T06:14:51;5.30;99.90
19359;DHT22;9815;52.334;20.890;2022-11-03T06:17:21;5.40;99.90
19359;DHT22;9815;52.334;20.890;2022-11-03T06:19:52;5.40;99.90
19359;DHT22;9815;52.334;20.890;2022-11-03T06:22:23;5.40;99.90
19359;DHT22;9815;52.334;20.890;2022-11-03T06:24:53;5.50;99.90
19359;DHT22;9815;52.334;20.890;2022-11-03T06:27:22;5.50;99.90
19359;DHT22;9815;52.334;20.890;2022-11-03T06:29:56;5.50;99.90
19359;DHT22;9815;52.334;20.890;2022-11-03T06:32:24;5.60;99.90
19359;DHT22;9815;52.334;20.890;2022-11-03T06:34:55;5.60;99.90
19359;DHT22;9815;52.334;20.890;2022-11-03T06:37:26;5.60;99.90
19359;DHT22;9815;52.334;20.890;2022-11-03T06:39:59;5.70;99.90
19359;DHT22;9815;52.334;20.890;2022-11-03T06:42:33;5.70;99.90
19359;DHT22;9815;52.334;20.890;2022-11-03T06:45:11;5.80;99.90
19359;DHT22;9815;52.334;20.890;2022-11-03T06:47:41;5.80;99.90
19359;DHT22;9815;52.334;20.890;2022-11-03T06:50:20;5.90;99.90
19359;DHT22;9815;52.334;20.890;2022-11-03T06:52:48;5.90;99.90
19359;DHT22;9815;52.334;20.890;2022-11-03T06:55:25;6.00;99.90
19359;DHT22;9815;52.334;20.890;2022-11-03T06:57:56;6.10;99.90
19359;DHT22;9815;52.334;20.890;2022-11-03T07:00:28;6.20;99.90
19359;DHT22;9815;52.334;20.890;2022-11-03T07:03:06;6.30;99.90
19359;DHT22;9815;52.334;20.890;2022-11-03T07:05:36;6.40;99.90
19359;DHT22;9815;52.334;20.890;2022-11-03T07:08:15;6.50;99.90
19359;DHT22;9815;52.334;20.890;2022-11-03T07:10:46;6.60;99.90
19359;DHT22;9815;52.334;20.890;2022-11-03T07:13:17;6.60;99.90
19359;DHT22;9815;52.334;20.890;2022-11-03T07:15:47;6.70;99.90
19359;DHT22;9815;52.334;20.890;2022-11-03T07:18:19;6.80;99.90
19359;DHT22;9815;52.334;20.890;2022-11-03T07:20:50;6.90;99.90
19359;DHT22;9815;52.334;20.890;2022-11-03T07:23:21;7.00;99.90
19359;DHT22;9815;52.334;20.890;2022-11-03T07:25:51;7.10;99.90
19359;DHT22;9815;52.334;20.890;2022-11-03T07:28:22;7.20;99.90
19359;DHT22;9815;52.334;20.890;2022-11-03T07:30:52;7.30;99.90
19359;DHT22;9815;52.334;20.890;2022-11-03T07:33:22;7.30;99.90
19359;DHT22;9815;52.334;20.890;2022-11-03T07:35:53;7.40;99.90
19359;DHT22;9815;52.334;20.890;2022-11-03T07:38:46;7.50;99.90
19359;DHT22;9815;52.334;20.890;2022-11-03T07:41:18;7.50;99.90
19359;DHT22;9815;52.334;20.890;2022-11-03T07:43:52;7.60;99.90
19359;DHT22;9815;52.334;20.890;2022-11-03T07:46:22;7.60;99.90
19359;DHT22;9815;52.334;20.890;2022-11-03T07:48:53;7.70;99.90
19359;DHT22;9815;52.334;20.890;2022-11-03T07:51:24;7.70;99.90
19359;DHT22;9815;52.334;20.890;2022-11-03T07:53:55;7.80;99.90
19359;DHT22;9815;52.334;20.890;2022-11-03T07:56:26;7.90;99.90
19359;DHT22;9815;52.334;20.890;2022-11-03T07:58:59;7.90;99.90
19359;DHT22;9815;52.334;20.890;2022-11-03T08:01:30;8.00;99.90
19359;DHT22;9815;52.334;20.890;2022-11-03T08:04:01;8.10;99.90
19359;DHT22;9815;52.334;20.890;2022-11-03T08:06:31;8.20;99.90
19359;DHT22;9815;52.334;20.890;2022-11-03T08:08:59;8.30;99.90
19359;DHT22;9815;52.334;20.890;2022-11-03T08:11:27;8.30;99.90
19359;DHT22;9815;52.334;20.890;2022-11-03T08:13:56;8.40;99.90
19359;DHT22;9815;52.334;20.890;2022-11-03T08:16:24;8.50;99.90
19359;DHT22;9815;52.334;20.890;2022-11-03T08:18:53;8.60;99.90
19359;DHT22;9815;52.334;20.890;2022-11-03T08:21:22;8.80;99.90
19359;DHT22;9815;52.334;20.890;2022-11-03T08:23:50;8.80;99.90
19359;DHT22;9815;52.334;20.890;2022-11-03T08:26:18;8.90;99.90
19359;DHT22;9815;52.334;20.890;2022-11-03T08:28:46;9.10;99.90
19359;DHT22;9815;52.334;20.890;2022-11-03T08:31:14;9.20;99.90
19359;DHT22;9815;52.334;20.890;2022-11-03T08:33:42;9.40;99.90
19359;DHT22;9815;52.334;20.890;2022-11-03T08:36:11;9.50;99.90
19359;DHT22;9815;52.334;20.890;2022-11-03T08:38:39;9.70;99.90
19359;DHT22;9815;52.334;20.890;2022-11-03T08:41:07;9.80;99.90
19359;DHT22;9815;52.334;20.890;2022-11-03T08:43:35;10.00;99.90
19359;DHT22;9815;52.334;20.890;2022-11-03T08:46:03;10.20;99.90
19359;DHT22;9815;52.334;20.890;2022-11-03T08:48:43;10.40;99.90
19359;DHT22;9815;52.334;20.890;2022-11-03T08:51:14;10.60;99.90
19359;DHT22;9815;52.334;20.890;2022-11-03T08:53:42;10.80;99.90
19359;DHT22;9815;52.334;20.890;2022-11-03T08:56:11;10.90;99.90
19359;DHT22;9815;52.334;20.890;2022-11-03T08:58:41;11.00;99.90
19359;DHT22;9815;52.334;20.890;2022-11-03T09:01:10;11.10;99.90
19359;DHT22;9815;52.334;20.890;2022-11-03T09:03:38;11.30;99.90
19359;DHT22;9815;52.334;20.890;2022-11-03T09:06:08;11.30;99.90
19359;DHT22;9815;52.334;20.890;2022-11-03T09:08:38;11.50;99.90
19359;DHT22;9815;52.334;20.890;2022-11-03T09:11:26;11.70;99.30
19359;DHT22;9815;52.334;20.890;2022-11-03T09:13:54;11.70;99.20
19359;DHT22;9815;52.334;20.890;2022-11-03T09:16:23;11.90;99.50
19359;DHT22;9815;52.334;20.890;2022-11-03T09:18:52;12.10;98.50
19359;DHT22;9815;52.334;20.890;2022-11-03T09:21:20;12.20;97.30
19359;DHT22;9815;52.334;20.890;2022-11-03T09:23:49;12.30;96.60
19359;DHT22;9815;52.334;20.890;2022-11-03T09:26:17;12.40;95.40
19359;DHT22;9815;52.334;20.890;2022-11-03T09:28:45;12.50;94.50
19359;DHT22;9815;52.334;20.890;2022-11-03T09:31:15;12.60;94.20
19359;DHT22;9815;52.334;20.890;2022-11-03T09:33:43;12.70;94.70
19359;DHT22;9815;52.334;20.890;2022-11-03T09:36:11;12.90;94.20
19359;DHT22;9815;52.334;20.890;2022-11-03T09:38:40;13.00;92.70
19359;DHT22;9815;52.334;20.890;2022-11-03T09:41:10;13.20;92.30
19359;DHT22;9815;52.334;20.890;2022-11-03T09:44:01;13.40;92.80
19359;DHT22;9815;52.334;20.890;2022-11-03T09:46:30;13.50;90.00
19359;DHT22;9815;52.334;20.890;2022-11-03T09:48:58;13.70;87.40
19359;DHT22;9815;52.334;20.890;2022-11-03T09:51:27;13.80;89.90
19359;DHT22;9815;52.334;20.890;2022-11-03T09:53:57;13.90;89.20
19359;DHT22;9815;52.334;20.890;2022-11-03T09:56:27;14.10;90.00
19359;DHT22;9815;52.334;20.890;2022-11-03T09:58:55;14.20;88.60
19359;DHT22;9815;52.334;20.890;2022-11-03T10:01:23;14.50;84.00
19359;DHT22;9815;52.334;20.890;2022-11-03T10:03:51;14.70;80.60
19359;DHT22;9815;52.334;20.890;2022-11-03T10:06:23;14.80;76.40
19359;DHT22;9815;52.334;20.890;2022-11-03T10:08:51;14.90;79.90
19359;DHT22;9815;52.334;20.890;2022-11-03T10:11:19;15.10;79.20
19359;DHT22;9815;52.334;20.890;2022-11-03T10:13:51;15.30;74.80
19359;DHT22;9815;52.334;20.890;2022-11-03T10:16:21;15.50;73.90
19359;DHT22;9815;52.334;20.890;2022-11-03T10:18:50;15.50;71.40
19359;DHT22;9815;52.334;20.890;2022-11-03T10:21:22;15.40;74.30
19359;DHT22;9815;52.334;20.890;2022-11-03T10:23:50;15.50;71.90
19359;DHT22;9815;52.334;20.890;2022-11-03T10:26:19;15.60;70.70
19359;DHT22;9815;52.334;20.890;2022-11-03T10:28:58;15.70;72.80
19359;DHT22;9815;52.334;20.890;2022-11-03T10:31:32;15.70;72.00
19359;DHT22;9815;52.334;20.890;2022-11-03T10:34:01;15.90;70.40
19359;DHT22;9815;52.334;20.890;2022-11-03T10:36:30;15.90;68.10
19359;DHT22;9815;52.334;20.890;2022-11-03T10:38:59;15.80;68.60
19359;DHT22;9815;52.334;20.890;2022-11-03T10:41:55;16.00;68.50
19359;DHT22;9815;52.334;20.890;2022-11-03T10:44:25;16.00;65.50
19359;DHT22;9815;52.334;20.890;2022-11-03T10:46:58;16.00;66.30
19359;DHT22;9815;52.334;20.890;2022-11-03T10:49:27;15.90;66.10
19359;DHT22;9815;52.334;20.890;2022-11-03T10:52:05;15.90;67.20
19359;DHT22;9815;52.334;20.890;2022-11-03T10:54:36;16.10;65.10
19359;DHT22;9815;52.334;20.890;2022-11-03T10:57:04;16.10;63.90
19359;DHT22;9815;52.334;20.890;2022-11-03T10:59:36;16.30;65.30
19359;DHT22;9815;52.334;20.890;2022-11-03T11:02:13;16.30;65.20
19359;DHT22;9815;52.334;20.890;2022-11-03T11:04:43;16.30;62.30
19359;DHT22;9815;52.334;20.890;2022-11-03T11:07:19;16.30;62.60
19359;DHT22;9815;52.334;20.890;2022-11-03T11:09:49;16.20;62.80
19359;DHT22;9815;52.334;20.890;2022-11-03T11:12:19;16.30;61.90
19359;DHT22;9815;52.334;20.890;2022-11-03T11:14:55;16.50;62.40
19359;DHT22;9815;52.334;20.890;2022-11-03T11:17:41;16.70;62.20
19359;DHT22;9815;52.334;20.890;2022-11-03T11:20:29;16.70;60.10
19359;DHT22;9815;52.334;20.890;2022-11-03T11:26:06;16.50;59.30
19359;DHT22;9815;52.334;20.890;2022-11-03T11:28:41;16.50;60.60
19359;DHT22;9815;52.334;20.890;2022-11-03T11:31:30;16.50;59.70
19359;DHT22;9815;52.334;20.890;2022-11-03T11:37:32;16.80;59.90
19359;DHT22;9815;52.334;20.890;2022-11-03T11:40:06;16.70;59.10
19359;DHT22;9815;52.334;20.890;2022-11-03T11:48:50;16.90;59.70
19359;DHT22;9815;52.334;20.890;2022-11-03T11:51:32;17.00;59.20
19359;DHT22;9815;52.334;20.890;2022-11-03T11:54:03;16.80;56.50
19359;DHT22;9815;52.334;20.890;2022-11-03T11:56:44;16.70;58.20
19359;DHT22;9815;52.334;20.890;2022-11-03T11:59:16;16.20;57.10
19359;DHT22;9815;52.334;20.890;2022-11-03T12:01:52;15.70;57.30
19359;DHT22;9815;52.334;20.890;2022-11-03T12:04:24;15.50;61.10
19359;DHT22;9815;52.334;20.890;2022-11-03T12:06:53;15.50;61.50
19359;DHT22;9815;52.334;20.890;2022-11-03T12:09:24;15.10;62.80
19359;DHT22;9815;52.334;20.890;2022-11-03T12:11:55;14.90;65.90
19359;DHT22;9815;52.334;20.890;2022-11-03T12:14:32;14.90;68.40
19359;DHT22;9815;52.334;20.890;2022-11-03T12:20:42;14.70;66.40
19359;DHT22;9815;52.334;20.890;2022-11-03T12:23:36;14.40;66.80
19359;DHT22;9815;52.334;20.890;2022-11-03T12:26:11;14.20;68.80
19359;DHT22;9815;52.334;20.890;2022-11-03T12:28:40;14.10;70.90
19359;DHT22;9815;52.334;20.890;2022-11-03T12:31:08;14.10;73.50
19359;DHT22;9815;52.334;20.890;2022-11-03T12:33:36;14.10;72.60
19359;DHT22;9815;52.334;20.890;2022-11-03T12:36:07;14.20;73.30
19359;DHT22;9815;52.334;20.890;2022-11-03T12:38:35;14.20;71.40
19359;DHT22;9815;52.334;20.890;2022-11-03T12:41:03;14.30;71.00
19359;DHT22;9815;52.334;20.890;2022-11-03T12:43:46;14.20;70.60
19359;DHT22;9815;52.334;20.890;2022-11-03T12:46:15;14.30;69.50
19359;DHT22;9815;52.334;20.890;2022-11-03T12:48:43;14.10;70.90
19359;DHT22;9815;52.334;20.890;2022-11-03T12:51:15;14.30;69.30
19359;DHT22;9815;52.334;20.890;2022-11-03T12:53:44;14.10;71.80
19359;DHT22;9815;52.334;20.890;2022-11-03T12:56:13;14.20;73.20
19359;DHT22;9815;52.334;20.890;2022-11-03T12:58:41;14.20;74.90
19359;DHT22;9815;52.334;20.890;2022-11-03T13:01:09;14.10;72.80
19359;DHT22;9815;52.334;20.890;2022-11-03T13:03:38;14.10;74.60
19359;DHT22;9815;52.334;20.890;2022-11-03T13:06:06;14.10;74.20
19359;DHT22;9815;52.334;20.890;2022-11-03T13:08:37;13.90;76.00
19359;DHT22;9815;52.334;20.890;2022-11-03T13:11:05;13.90;75.80
19359;DHT22;9815;52.334;20.890;2022-11-03T13:13:54;13.80;79.50
19359;DHT22;9815;52.334;20.890;2022-11-03T13:16:22;13.70;79.70
19359;DHT22;9815;52.334;20.890;2022-11-03T13:18:51;13.70;78.50
19359;DHT22;9815;52.334;20.890;2022-11-03T13:21:19;13.70;80.40
19359;DHT22;9815;52.334;20.890;2022-11-03T13:23:48;13.60;78.40
19359;DHT22;9815;52.334;20.890;2022-11-03T13:26:17;13.60;77.40
19359;DHT22;9815;52.334;20.890;2022-11-03T13:28:45;13.60;75.50
19359;DHT22;9815;52.334;20.890;2022-11-03T13:31:13;13.50;78.80
19359;DHT22;9815;52.334;20.890;2022-11-03T13:33:41;13.50;77.10
19359;DHT22;9815;52.334;20.890;2022-11-03T13:36:11;13.40;77.40
19359;DHT22;9815;52.334;20.890;2022-11-03T13:38:39;13.30;80.00
19359;DHT22;9815;52.334;20.890;2022-11-03T13:41:09;13.30;81.80
19359;DHT22;9815;52.334;20.890;2022-11-03T13:43:37;13.30;81.40
19359;DHT22;9815;52.334;20.890;2022-11-03T13:46:05;13.30;80.10
19359;DHT22;9815;52.334;20.890;2022-11-03T13:48:33;13.20;81.40
19359;DHT22;9815;52.334;20.890;2022-11-03T13:51:21;13.20;80.00
19359;DHT22;9815;52.334;20.890;2022-11-03T13:53:49;13.10;80.90
19359;DHT22;9815;52.334;20.890;2022-11-03T13:56:38;13.00;82.80
19359;DHT22;9815;52.334;20.890;2022-11-03T13:59:26;12.90;83.30
19359;DHT22;9815;52.334;20.890;2022-11-03T14:01:55;12.80;85.50
19359;DHT22;9815;52.334;20.890;2022-11-03T14:04:43;12.60;88.10
19359;DHT22;9815;52.334;20.890;2022-11-03T14:07:11;12.50;88.90
19359;DHT22;9815;52.334;20.890;2022-11-03T14:09:39;12.40;89.30
19359;DHT22;9815;52.334;20.890;2022-11-03T14:12:09;12.40;90.70
19359;DHT22;9815;52.334;20.890;2022-11-03T14:14:54;12.30;90.30
19359;DHT22;9815;52.334;20.890;2022-11-03T14:17:22;12.30;90.20
19359;DHT22;9815;52.334;20.890;2022-11-03T14:19:51;12.20;91.20
19359;DHT22;9815;52.334;20.890;2022-11-03T14:22:23;12.10;90.70
19359;DHT22;9815;52.334;20.890;2022-11-03T14:24:52;12.10;91.00
19359;DHT22;9815;52.334;20.890;2022-11-03T14:27:21;12.00;91.60
19359;DHT22;9815;52.334;20.890;2022-11-03T14:29:49;12.00;91.80
19359;DHT22;9815;52.334;20.890;2022-11-03T14:32:18;11.90;91.60
19359;DHT22;9815;52.334;20.890;2022-11-03T14:34:46;11.80;92.60
19359;DHT22;9815;52.334;20.890;2022-11-03T14:37:15;11.70;93.70
19359;DHT22;9815;52.334;20.890;2022-11-03T14:39:43;11.60;94.70
19359;DHT22;9815;52.334;20.890;2022-11-03T14:42:13;11.50;95.80
19359;DHT22;9815;52.334;20.890;2022-11-03T14:44:44;11.30;97.10
19359;DHT22;9815;52.334;20.890;2022-11-03T14:47:13;11.20;97.80
19359;DHT22;9815;52.334;20.890;2022-11-03T14:49:43;11.10;98.70
19359;DHT22;9815;52.334;20.890;2022-11-03T14:52:13;10.90;99.80
19359;DHT22;9815;52.334;20.890;2022-11-03T14:54:41;10.80;99.90
19359;DHT22;9815;52.334;20.890;2022-11-03T14:57:09;10.70;99.90
19359;DHT22;9815;52.334;20.890;2022-11-03T14:59:37;10.60;99.90
19359;DHT22;9815;52.334;20.890;2022-11-03T15:02:07;10.50;99.90
19359;DHT22;9815;52.334;20.890;2022-11-03T15:04:35;10.40;99.90
19359;DHT22;9815;52.334;20.890;2022-11-03T15:07:03;10.30;99.90
19359;DHT22;9815;52.334;20.890;2022-11-03T15:09:30;10.20;99.90
19359;DHT22;9815;52.334;20.890;2022-11-03T15:11:58;10.10;99.90
19359;DHT22;9815;52.334;20.890;2022-11-03T15:14:26;9.90;99.90
19359;DHT22;9815;52.334;20.890;2022-11-03T15:16:55;9.80;99.90
19359;DHT22;9815;52.334;20.890;2022-11-03T15:19:24;9.70;99.90
19359;DHT22;9815;52.334;20.890;2022-11-03T15:21:52;9.50;99.90
19359;DHT22;9815;52.334;20.890;2022-11-03T15:24:20;9.50;99.90
19359;DHT22;9815;52.334;20.890;2022-11-03T15:27:08;9.40;99.90
19359;DHT22;9815;52.334;20.890;2022-11-03T15:29:36;9.20;99.90
19359;DHT22;9815;52.334;20.890;2022-11-03T15:32:04;9.20;99.90
19359;DHT22;9815;52.334;20.890;2022-11-03T15:34:34;9.20;99.90
19359;DHT22;9815;52.334;20.890;2022-11-03T15:37:02;9.00;99.90
19359;DHT22;9815;52.334;20.890;2022-11-03T15:39:30;8.90;99.90
19359;DHT22;9815;52.334;20.890;2022-11-03T15:41:58;8.80;99.90
19359;DHT22;9815;52.334;20.890;2022-11-03T15:44:26;8.70;99.90
19359;DHT22;9815;52.334;20.890;2022-11-03T15:46:54;8.70;99.90
19359;DHT22;9815;52.334;20.890;2022-11-03T15:49:22;8.60;99.90
19359;DHT22;9815;52.334;20.890;2022-11-03T15:51:51;8.50;99.90
19359;DHT22;9815;52.334;20.890;2022-11-03T15:54:19;8.50;99.90
19359;DHT22;9815;52.334;20.890;2022-11-03T15:56:47;8.50;99.90
19359;DHT22;9815;52.334;20.890;2022-11-03T15:59:16;8.40;99.90
19359;DHT22;9815;52.334;20.890;2022-11-03T16:01:44;8.40;99.90
19359;DHT22;9815;52.334;20.890;2022-11-03T16:04:13;8.30;99.90
19359;DHT22;9815;52.334;20.890;2022-11-03T16:06:42;8.20;99.90
19359;DHT22;9815;52.334;20.890;2022-11-03T16:09:31;8.20;99.90
19359;DHT22;9815;52.334;20.890;2022-11-03T16:11:59;8.10;99.90
19359;DHT22;9815;52.334;20.890;2022-11-03T16:14:28;8.00;99.90
19359;DHT22;9815;52.334;20.890;2022-11-03T16:16:57;7.90;99.90
19359;DHT22;9815;52.334;20.890;2022-11-03T16:19:28;7.80;99.90
19359;DHT22;9815;52.334;20.890;2022-11-03T16:21:56;7.80;99.90
19359;DHT22;9815;52.334;20.890;2022-11-03T16:24:24;7.70;99.90
19359;DHT22;9815;52.334;20.890;2022-11-03T16:27:02;7.60;99.90